createdAt,value
2019-03-12T00:01:55.398Z,68.40
2019-03-12T00:08:01.159Z,68.56
2019-03-12T00:14:06.905Z,68.71
2019-03-12T00:20:12.716Z,68.75
2019-03-12T00:26:18.423Z,68.81
2019-03-12T00:32:24.510Z,68.80
2019-03-12T00:38:38.151Z,68.81
2019-03-12T00:44:44.107Z,68.73
2019-03-12T00:50:50.240Z,68.67
2019-03-12T00:56:56.363Z,68.85
2019-03-12T01:03:02.090Z,68.96
2019-03-12T01:09:10.035Z,69.12
2019-03-12T01:15:16.354Z,69.20
2019-03-12T01:21:22.165Z,69.44
2019-03-12T01:27:27.944Z,69.77
2019-03-12T01:33:34.017Z,70.05
2019-03-12T01:39:39.768Z,70.38
2019-03-12T01:45:45.657Z,70.50
2019-03-12T01:51:51.669Z,70.37
2019-03-12T01:57:57.685Z,70.42
2019-03-12T02:04:09.304Z,70.24
2019-03-12T02:10:15.349Z,70.19
2019-03-12T02:16:21.065Z,70.34
2019-03-12T02:22:26.806Z,70.26
2019-03-12T02:28:32.560Z,70.26
2019-03-12T02:34:38.559Z,70.25
2019-03-12T02:40:44.649Z,70.10
2019-03-12T02:46:50.712Z,70.18
2019-03-12T02:52:56.605Z,70.29
2019-03-12T02:59:02.453Z,70.49
2019-03-12T03:05:08.508Z,70.46
2019-03-12T03:11:14.323Z,70.52
2019-03-12T03:17:20.017Z,70.39
2019-03-12T03:23:25.987Z,70.38
2019-03-12T03:29:31.892Z,70.23
2019-03-12T03:35:37.694Z,70.24
2019-03-12T03:41:43.647Z,70.06
2019-03-12T03:47:49.694Z,70.01
2019-03-12T03:53:55.487Z,69.90
2019-03-12T04:00:03.370Z,69.69
2019-03-12T04:06:10.332Z,69.38
2019-03-12T04:12:16.215Z,69.18
2019-03-12T04:18:22.142Z,68.98
2019-03-12T04:24:28.093Z,68.95
2019-03-12T04:30:33.791Z,68.81
2019-03-12T04:36:39.523Z,68.61
2019-03-12T04:42:45.292Z,68.52
2019-03-12T04:48:51.246Z,68.25
2019-03-12T04:54:57.194Z,68.26
2019-03-12T05:01:03.028Z,68.29
2019-03-12T05:07:08.715Z,68.22
2019-03-12T05:13:14.880Z,68.29
2019-03-12T05:19:20.985Z,68.34
2019-03-12T05:25:27.026Z,68.10
2019-03-12T05:31:33.018Z,68.13
2019-03-12T05:37:38.941Z,67.89
2019-03-12T05:43:44.951Z,67.84
2019-03-12T05:49:51.148Z,67.56
2019-03-12T05:55:57.613Z,67.41
2019-03-12T06:02:03.362Z,67.07
2019-03-12T06:08:09.209Z,66.92
2019-03-12T06:14:15.169Z,66.82
2019-03-12T06:20:21.015Z,66.62
2019-03-12T06:26:26.948Z,66.83
2019-03-12T06:32:48.290Z,66.80
2019-03-12T06:39:07.487Z,66.88
2019-03-12T06:45:30.968Z,66.75
2019-03-12T06:51:46.683Z,66.67
2019-03-12T06:58:24.272Z,66.42
2019-03-12T07:04:51.853Z,66.14
2019-03-12T07:11:22.422Z,66.03
2019-03-12T07:17:47.445Z,65.98
2019-03-12T07:24:13.165Z,65.59
2019-03-12T07:30:34.703Z,65.62
2019-03-12T07:36:59.757Z,65.23
2019-03-12T07:43:39.888Z,64.72
2019-03-12T07:50:07.321Z,64.77
2019-03-12T07:56:50.273Z,64.95
2019-03-12T08:03:14.902Z,64.59
2019-03-12T08:09:38.415Z,64.28
2019-03-12T08:16:06.651Z,63.70
2019-03-12T08:22:23.212Z,62.80
2019-03-12T08:28:38.188Z,63.98
2019-03-12T08:34:51.483Z,62.10
2019-03-12T08:41:34.389Z,61.32
2019-03-12T08:48:01.534Z,60.40
2019-03-12T08:54:14.175Z,60.12
2019-03-12T09:00:37.780Z,59.90
2019-03-12T09:07:05.772Z,59.00
2019-03-12T09:13:40.318Z,58.72
2019-03-12T09:20:20.422Z,58.24
2019-03-12T09:26:32.424Z,57.77
2019-03-12T09:32:49.159Z,56.22
2019-03-12T09:39:08.427Z,55.29
2019-03-12T09:45:41.126Z,54.65
2019-03-12T09:52:00.884Z,53.60
2019-03-12T09:58:24.288Z,52.17
2019-03-12T10:04:53.851Z,52.32
2019-03-12T10:11:16.815Z,51.58
2019-03-12T10:17:50.224Z,50.94
2019-03-12T10:24:11.984Z,50.89
2019-03-12T10:30:39.848Z,50.55
2019-03-12T10:37:12.134Z,48.64
2019-03-12T10:43:15.093Z,48.91
2019-03-12T10:49:20.899Z,48.24
2019-03-12T10:55:26.983Z,47.40
2019-03-12T11:01:32.767Z,46.08
2019-03-12T11:07:38.740Z,45.55
2019-03-12T11:13:44.841Z,45.21
2019-03-12T11:19:50.642Z,45.37
2019-03-12T11:25:56.414Z,44.79
2019-03-12T11:32:02.318Z,44.11
2019-03-12T11:38:08.029Z,44.37
2019-03-12T11:44:14.123Z,44.33
2019-03-12T11:50:21.339Z,44.21
2019-03-12T11:56:29.289Z,43.50
2019-03-12T12:02:35.101Z,43.34
2019-03-12T12:08:40.984Z,43.51
2019-03-12T12:14:46.868Z,43.04
2019-03-12T12:20:52.913Z,43.26
2019-03-12T12:26:58.882Z,43.13
2019-03-12T12:33:04.917Z,42.78
2019-03-12T12:39:10.864Z,42.86
2019-03-12T12:45:20.709Z,42.07
2019-03-12T12:51:26.855Z,42.79
2019-03-12T12:57:32.927Z,42.38
2019-03-12T13:03:38.706Z,40.62
2019-03-12T13:09:44.708Z,40.71
2019-03-12T13:15:50.780Z,40.55
2019-03-12T13:21:56.603Z,39.97
2019-03-12T13:28:02.396Z,39.89
2019-03-12T13:34:08.306Z,39.61
2019-03-12T13:40:16.570Z,39.91
2019-03-12T13:46:22.752Z,40.15
2019-03-12T13:52:28.889Z,40.05
2019-03-12T13:58:34.620Z,40.40
2019-03-12T14:04:40.350Z,39.64
2019-03-12T14:10:47.520Z,39.49
2019-03-12T14:16:53.550Z,39.57
2019-03-12T14:22:59.549Z,39.58
2019-03-12T14:29:05.884Z,39.78
2019-03-12T14:35:11.970Z,40.35
2019-03-12T14:41:17.863Z,40.38
2019-03-12T14:47:23.934Z,40.46
2019-03-12T14:53:30.024Z,39.90
2019-03-12T14:59:36.299Z,39.69
2019-03-12T15:05:42.059Z,39.87
2019-03-12T15:11:47.837Z,39.93
2019-03-12T15:17:53.943Z,39.54
2019-03-12T15:24:00.136Z,39.70
2019-03-12T15:30:09.176Z,40.23
2019-03-12T15:36:15.148Z,39.75
2019-03-12T15:42:20.939Z,39.72
2019-03-12T15:48:26.923Z,39.59
2019-03-12T15:54:32.904Z,39.35
2019-03-12T16:00:39.064Z,39.17
2019-03-12T16:06:44.879Z,39.18
2019-03-12T16:12:53.907Z,39.15
2019-03-12T16:19:00.948Z,38.76
2019-03-12T16:25:07.324Z,38.32
2019-03-12T16:31:13.264Z,38.14
2019-03-12T16:37:27.404Z,38.32
2019-03-12T16:43:33.358Z,38.10
2019-03-12T16:49:39.410Z,37.94
2019-03-12T16:55:45.204Z,37.88
2019-03-12T17:01:51.151Z,37.31
2019-03-12T17:07:57.250Z,36.84
2019-03-12T17:14:02.978Z,36.72
2019-03-12T17:20:10.860Z,36.87
2019-03-12T17:26:16.907Z,36.80
2019-03-12T17:32:23.133Z,36.56
2019-03-12T17:38:45.141Z,36.73
2019-03-12T17:44:37.219Z,36.89
2019-03-12T17:50:42.969Z,37.10
2019-03-12T17:56:49.014Z,37.04
2019-03-12T18:02:54.977Z,37.22
2019-03-12T18:09:00.891Z,37.22
2019-03-12T18:15:08.219Z,37.38
2019-03-12T18:21:15.712Z,37.31
2019-03-12T18:27:21.600Z,37.29
2019-03-12T18:33:27.337Z,37.54
2019-03-12T18:39:33.261Z,37.26
2019-03-12T18:45:39.337Z,37.29
2019-03-12T18:51:45.414Z,37.16
2019-03-12T18:57:51.434Z,37.23
2019-03-12T19:03:57.339Z,37.18
2019-03-12T19:10:03.461Z,36.73
2019-03-12T19:16:09.755Z,37.50
2019-03-12T19:35:24.455Z,43.08
2019-03-12T19:41:30.624Z,44.73
2019-03-12T19:47:36.385Z,44.91
2019-03-12T19:53:42.157Z,45.52
2019-03-12T19:59:47.937Z,46.19
2019-03-12T20:05:53.729Z,46.61
2019-03-12T20:13:27.681Z,47.97
2019-03-12T20:20:36.571Z,49.24
2019-03-12T20:27:37.131Z,50.58
2019-03-12T20:34:40.140Z,51.38
2019-03-12T20:41:53.309Z,51.89
2019-03-12T20:48:43.136Z,52.15
2019-03-12T20:55:47.941Z,52.01
2019-03-12T21:02:48.058Z,52.39
2019-03-12T21:10:01.414Z,54.01
2019-03-12T21:16:53.060Z,56.43
2019-03-12T21:24:12.908Z,63.49
2019-03-12T21:30:16.154Z,65.79
2019-03-12T21:36:22.033Z,65.92
2019-03-12T21:42:27.922Z,67.05
2019-03-12T21:48:33.704Z,67.44
2019-03-12T21:54:40.112Z,67.34
2019-03-12T22:00:46.125Z,67.68
2019-03-12T22:06:51.978Z,67.37
2019-03-12T22:12:58.093Z,67.08
2019-03-12T22:19:04.111Z,67.13
2019-03-12T22:25:11.804Z,66.97
2019-03-12T22:31:17.678Z,66.46
2019-03-12T22:37:23.688Z,66.34
2019-03-12T22:43:29.507Z,65.99
2019-03-12T22:49:35.242Z,65.68
2019-03-12T22:55:40.947Z,65.49
2019-03-12T23:01:46.764Z,65.15
2019-03-12T23:07:52.530Z,64.92
2019-03-12T23:13:58.292Z,64.74
2019-03-12T23:20:04.304Z,64.98
2019-03-12T23:26:09.973Z,65.16
2019-03-12T23:32:16.438Z,64.79
2019-03-12T23:38:22.316Z,65.10
2019-03-12T23:44:28.009Z,65.06
2019-03-12T23:50:33.879Z,65.00
2019-03-12T23:56:39.700Z,64.97
